This is the latest recevied weather packets stored in our database for station/object R1ZAAG-14. If no packets are shown the sender has not sent any weather packets the latest 10 day(s).
| Time | Temp. | Humidity | Pressure | Rain* | Wind** | Luminosity | Snow |
|---|---|---|---|---|---|---|---|
| 1777958770 | 5° C | 52% | 995.4 hPa | - | - | - | - |
| 1777957874 | 5° C | 53% | 995.5 hPa | - | - | - | - |
| 1777957867 | 5° C | 53% | 995.5 hPa | - | - | - | - |
| 1777956966 | 5.56° C | 52% | 995.4 hPa | - | - | - | - |
| 1777956065 | 4.44° C | 55% | 995.7 hPa | - | - | - | - |
| 1777955183 | 4.44° C | 52% | 995.8 hPa | - | - | - | - |
| 1777954282 | 4.44° C | 52% | 995.8 hPa | - | - | - | - |
| 1777953382 | 3.89° C | 52% | 996.1 hPa | - | - | - | - |
| 1777952482 | 2.78° C | 56% | 996.2 hPa | - | - | - | - |
| 1777951581 | 2.78° C | 56% | 996.1 hPa | - | - | - | - |
| 1777950680 | 2.22° C | 56% | 996.2 hPa | - | - | - | - |
| 1777949780 | 2.22° C | 56% | 996.4 hPa | - | - | - | - |
| 1777948879 | 1.11° C | 58% | 996.5 hPa | - | - | - | - |
| 1777947977 | 1.11° C | 58% | 996.6 hPa | - | - | - | - |
| 1777947076 | 1.11° C | 58% | 996.8 hPa | - | - | - | - |
| 1777946175 | 0.56° C | 58% | 996.8 hPa | - | - | - | - |
| 1777945275 | 1.11° C | 59% | 996.8 hPa | - | - | - | - |
| 1777944375 | 0.56° C | 58% | 997.1 hPa | - | - | - | - |
| 1777943474 | 1.11° C | 59% | 997.2 hPa | - | - | - | - |
| 1777942571 | 1.11° C | 59% | 997.4 hPa | - | - | - | - |
| 1777941670 | 0.56° C | 59% | 997.5 hPa | - | - | - | - |
| 1777940769 | 0.56° C | 60% | 997.7 hPa | - | - | - | - |
| 1777939869 | 1.11° C | 59% | 997.7 hPa | - | - | - | - |
| 1777938969 | 1.67° C | 59% | 997.6 hPa | - | - | - | - |
| 1777938067 | 1.67° C | 58% | 997.8 hPa | - | - | - | - |
* Rain since midnight (hover to see other rain measurements)
** Current wind speed in m/s (hover to see current wind gust speed)